Flight Track Log - Related Links

Times and Time Zones

All times are in EDT time to prevent confusion due to time zone crossing. See the EJA831 flight status page for this flight to view local times or setup timezone preferences in your user account.

Time Position Orientation Groundspeed Altitude Reporting Facility
EDT Latitude Longitude Course Direction KTS MPH feet Rate Location/Type
Tue 02:39:05 PM 34.0000 -118.4667 270° West 132 152 1,000  Level Southern California TRACON
Tue 02:40:05 PM 34.0000 -118.5167 270° West 191 220 3,100 2,827 Climbing Southern California TRACON
Tue 02:40:49 PM 33.9839 -118.5681 249° West 223 257 5,900 2,491 Climbing Los Angeles Center
Tue 02:41:51 PM 33.9533 -118.6569 248° West 285 328 7,500 2,341 Climbing Los Angeles Center
Tue 02:42:52 PM 33.8825 -118.6914 202° Southwest 317 365 10,700 2,683 Climbing Los Angeles Center
Tue 02:43:54 PM 33.7983 -118.6781 173° South 322 371 13,000 1,113 Climbing Los Angeles Center
Tue 02:44:56 PM 33.7439 -118.5969 129° Southeast 328 377 13,000 1,065 Level Los Angeles Center
Tue 02:45:58 PM 33.7517 -118.4631 86° East 334 384 15,200 1,790 Climbing Los Angeles Center
Tue 02:47:00 PM 33.7597 -118.3636 84° East 337 388 16,700 871 Climbing Los Angeles Center
Tue 02:48:02 PM 33.7697 -118.2361 85° East 367 422 17,000 145 Climbing Los Angeles Center
Tue 02:49:04 PM 33.7808 -118.0917 85° East 360 414 17,000  Level Los Angeles Center
Tue 02:50:06 PM 33.7772 -117.9708 92° East 361 415 17,000  Level Los Angeles Center
Tue 02:51:08 PM 33.7681 -117.8492 95° East 362 417 17,000  Level Los Angeles Center
Tue 02:52:10 PM 33.7589 -117.7272 95° East 364 419 17,000  Level Los Angeles Center
Tue 02:53:12 PM 33.7494 -117.6067 95° East 365 420 17,000  Level Los Angeles Center
Tue 02:54:14 PM 33.7400 -117.4825 95° East 369 425 17,000  Level Los Angeles Center
Tue 02:55:16 PM 33.7281 -117.3361 96° East 370 426 17,000  Level Los Angeles Center
Tue 02:56:18 PM 33.7186 -117.2150 95° East 367 422 17,000  Level Los Angeles Center
Tue 02:57:20 PM 33.7081 -117.0950 96° East 363 418 17,000  Level Los Angeles Center
Tue 02:58:22 PM 33.6978 -116.9744 96° East 363 418 17,000  Level Los Angeles Center
Tue 02:59:24 PM 33.6861 -116.8542 97° East 363 418 17,000 -339 Level Los Angeles Center
Tue 03:00:26 PM 33.6783 -116.7339 94° East 363 418 16,300 -1,500 Descending Los Angeles Center
Tue 03:01:28 PM 33.6672 -116.5903 95° East 362 417 13,900 -2,129 Descending Los Angeles Center
Tue 03:02:30 PM 33.6581 -116.4897 96° East 339 390 11,900 -1,984 Descending Los Angeles Center
Tue 03:03:32 PM 33.6792 -116.4222 69° East 286 329 9,800 -1,839 Descending Los Angeles Center
Tue 03:04:34 PM 33.7317 -116.4014 18° North 232 267 8,100 -1,016 Descending Los Angeles Center
Tue 03:05:36 PM 33.7806 -116.3947 North 199 229 7,700 -387 Descending Los Angeles Center
Tue 03:06:38 PM 33.8247 -116.3869 North 193 222 7,300 -387 Descending Los Angeles Center
Tue 03:08:00 PM 33.7579 -116.2887 129° Southeast  Level Estimated
Tue 03:15:00 PM 33.7484 -116.2748 312° West  Level Estimated

Login

Don't have an account? Register now (free) for customized features, flight alerts, and more!